sensor_id;sensor_type;location;lat;lon;timestamp;temperature;humidity
1049;DHT22;513;51.444;7.196;2023-03-31T00:00:09;10.50;99.90
1049;DHT22;513;51.444;7.196;2023-03-31T00:02:37;10.40;99.90
1049;DHT22;513;51.444;7.196;2023-03-31T00:05:05;10.40;99.90
1049;DHT22;513;51.444;7.196;2023-03-31T00:07:32;10.40;99.90
1049;DHT22;513;51.444;7.196;2023-03-31T00:10:02;10.40;99.90
1049;DHT22;513;51.444;7.196;2023-03-31T00:12:30;10.40;99.90
1049;DHT22;513;51.444;7.196;2023-03-31T00:14:57;10.30;99.90
1049;DHT22;513;51.444;7.196;2023-03-31T00:17:23;10.30;99.90
1049;DHT22;513;51.444;7.196;2023-03-31T00:19:50;10.30;99.90
1049;DHT22;513;51.444;7.196;2023-03-31T00:22:18;10.30;99.90
1049;DHT22;513;51.444;7.196;2023-03-31T00:24:46;10.30;99.90
1049;DHT22;513;51.444;7.196;2023-03-31T00:27:13;10.30;99.90
1049;DHT22;513;51.444;7.196;2023-03-31T00:29:41;10.40;99.90
1049;DHT22;513;51.444;7.196;2023-03-31T00:32:07;10.30;99.90
1049;DHT22;513;51.444;7.196;2023-03-31T00:34:34;10.30;99.90
1049;DHT22;513;51.444;7.196;2023-03-31T00:37:01;10.30;99.90
1049;DHT22;513;51.444;7.196;2023-03-31T00:39:28;10.30;99.90
1049;DHT22;513;51.444;7.196;2023-03-31T00:41:58;10.40;99.90
1049;DHT22;513;51.444;7.196;2023-03-31T00:44:27;10.30;99.90
1049;DHT22;513;51.444;7.196;2023-03-31T00:46:56;10.40;99.90
1049;DHT22;513;51.444;7.196;2023-03-31T00:49:26;10.40;99.90
1049;DHT22;513;51.444;7.196;2023-03-31T00:51:55;10.40;99.90
1049;DHT22;513;51.444;7.196;2023-03-31T00:54:22;10.40;99.90
1049;DHT22;513;51.444;7.196;2023-03-31T00:56:50;10.40;99.90
1049;DHT22;513;51.444;7.196;2023-03-31T00:59:23;10.40;99.90
1049;DHT22;513;51.444;7.196;2023-03-31T01:01:51;10.50;99.90
1049;DHT22;513;51.444;7.196;2023-03-31T01:04:20;10.50;99.90
1049;DHT22;513;51.444;7.196;2023-03-31T01:06:50;10.50;99.90
1049;DHT22;513;51.444;7.196;2023-03-31T01:09:22;10.60;99.90
1049;DHT22;513;51.444;7.196;2023-03-31T01:11:49;10.50;99.90
1049;DHT22;513;51.444;7.196;2023-03-31T01:14:15;10.50;99.90
1049;DHT22;513;51.444;7.196;2023-03-31T01:16:42;10.50;99.90
1049;DHT22;513;51.444;7.196;2023-03-31T01:19:10;10.40;99.90
1049;DHT22;513;51.444;7.196;2023-03-31T01:27:17;10.30;99.90
1049;DHT22;513;51.444;7.196;2023-03-31T01:29:58;10.20;99.90
1049;DHT22;513;51.444;7.196;2023-03-31T01:32:37;10.10;99.90
1049;DHT22;513;51.444;7.196;2023-03-31T01:38:12;10.00;99.90
1049;DHT22;513;51.444;7.196;2023-03-31T01:40:50;10.00;99.90
1049;DHT22;513;51.444;7.196;2023-03-31T01:43:19;10.00;99.90
1049;DHT22;513;51.444;7.196;2023-03-31T01:45:52;10.00;99.90
1049;DHT22;513;51.444;7.196;2023-03-31T01:48:21;10.00;99.90
1049;DHT22;513;51.444;7.196;2023-03-31T01:50:52;9.90;99.90
1049;DHT22;513;51.444;7.196;2023-03-31T01:53:21;9.90;99.90
1049;DHT22;513;51.444;7.196;2023-03-31T01:55:51;9.90;99.90
1049;DHT22;513;51.444;7.196;2023-03-31T01:58:23;9.90;99.90
1049;DHT22;513;51.444;7.196;2023-03-31T02:00:52;10.00;99.90
1049;DHT22;513;51.444;7.196;2023-03-31T02:03:21;10.00;99.90
1049;DHT22;513;51.444;7.196;2023-03-31T02:05:50;10.00;99.90
1049;DHT22;513;51.444;7.196;2023-03-31T02:08:19;9.90;99.90
1049;DHT22;513;51.444;7.196;2023-03-31T02:10:47;9.90;99.90
1049;DHT22;513;51.444;7.196;2023-03-31T02:13:15;9.90;99.90
1049;DHT22;513;51.444;7.196;2023-03-31T02:15:44;9.90;99.90
1049;DHT22;513;51.444;7.196;2023-03-31T02:18:13;9.80;99.90
1049;DHT22;513;51.444;7.196;2023-03-31T02:20:41;9.80;99.90
1049;DHT22;513;51.444;7.196;2023-03-31T02:23:10;9.90;99.90
1049;DHT22;513;51.444;7.196;2023-03-31T02:25:40;9.90;99.90
1049;DHT22;513;51.444;7.196;2023-03-31T02:28:11;9.80;99.90
1049;DHT22;513;51.444;7.196;2023-03-31T02:30:42;9.80;99.90
1049;DHT22;513;51.444;7.196;2023-03-31T02:33:11;9.80;99.90
1049;DHT22;513;51.444;7.196;2023-03-31T02:35:37;9.90;99.90
1049;DHT22;513;51.444;7.196;2023-03-31T02:38:04;9.90;99.90
1049;DHT22;513;51.444;7.196;2023-03-31T02:40:31;10.00;99.90
1049;DHT22;513;51.444;7.196;2023-03-31T02:42:57;10.00;99.90
1049;DHT22;513;51.444;7.196;2023-03-31T02:48:10;10.00;99.90
1049;DHT22;513;51.444;7.196;2023-03-31T02:50:43;10.00;99.90
1049;DHT22;513;51.444;7.196;2023-03-31T02:53:17;10.00;99.90
1049;DHT22;513;51.444;7.196;2023-03-31T02:55:50;10.00;99.90
1049;DHT22;513;51.444;7.196;2023-03-31T03:01:09;10.00;99.90
1049;DHT22;513;51.444;7.196;2023-03-31T03:03:40;10.00;99.90
1049;DHT22;513;51.444;7.196;2023-03-31T03:06:12;9.90;99.90
1049;DHT22;513;51.444;7.196;2023-03-31T03:08:46;9.90;99.90
1049;DHT22;513;51.444;7.196;2023-03-31T03:11:20;9.90;99.90
1049;DHT22;513;51.444;7.196;2023-03-31T03:13:50;9.90;99.90
1049;DHT22;513;51.444;7.196;2023-03-31T03:16:18;9.90;99.90
1049;DHT22;513;51.444;7.196;2023-03-31T03:18:55;9.90;99.90
1049;DHT22;513;51.444;7.196;2023-03-31T03:21:22;9.90;99.90
1049;DHT22;513;51.444;7.196;2023-03-31T03:23:48;9.80;99.90
1049;DHT22;513;51.444;7.196;2023-03-31T03:26:15;9.80;99.90
1049;DHT22;513;51.444;7.196;2023-03-31T03:28:45;9.80;99.90
1049;DHT22;513;51.444;7.196;2023-03-31T03:31:12;9.80;99.90
1049;DHT22;513;51.444;7.196;2023-03-31T03:33:39;9.80;99.90
1049;DHT22;513;51.444;7.196;2023-03-31T03:36:08;9.80;99.90
1049;DHT22;513;51.444;7.196;2023-03-31T03:38:34;9.80;99.90
1049;DHT22;513;51.444;7.196;2023-03-31T03:41:01;9.80;99.90
1049;DHT22;513;51.444;7.196;2023-03-31T03:43:27;9.80;99.90
1049;DHT22;513;51.444;7.196;2023-03-31T03:45:54;9.70;99.90
1049;DHT22;513;51.444;7.196;2023-03-31T03:48:20;9.70;99.90
1049;DHT22;513;51.444;7.196;2023-03-31T03:50:47;9.70;99.90
1049;DHT22;513;51.444;7.196;2023-03-31T03:53:15;9.70;99.90
1049;DHT22;513;51.444;7.196;2023-03-31T03:55:41;9.70;99.90
1049;DHT22;513;51.444;7.196;2023-03-31T03:58:09;9.70;99.90
1049;DHT22;513;51.444;7.196;2023-03-31T04:00:36;9.70;99.90
1049;DHT22;513;51.444;7.196;2023-03-31T04:03:02;9.80;99.90
1049;DHT22;513;51.444;7.196;2023-03-31T04:05:29;9.80;99.90
1049;DHT22;513;51.444;7.196;2023-03-31T04:07:55;9.70;99.90
1049;DHT22;513;51.444;7.196;2023-03-31T04:10:23;9.70;99.90
1049;DHT22;513;51.444;7.196;2023-03-31T04:12:50;9.70;99.90
1049;DHT22;513;51.444;7.196;2023-03-31T04:15:16;9.70;99.90
1049;DHT22;513;51.444;7.196;2023-03-31T04:17:43;9.70;99.90
1049;DHT22;513;51.444;7.196;2023-03-31T04:20:15;9.70;99.90
1049;DHT22;513;51.444;7.196;2023-03-31T04:22:42;9.70;99.90
1049;DHT22;513;51.444;7.196;2023-03-31T04:25:11;9.70;99.90
1049;DHT22;513;51.444;7.196;2023-03-31T04:27:42;9.70;99.90
1049;DHT22;513;51.444;7.196;2023-03-31T04:30:11;9.70;99.90
1049;DHT22;513;51.444;7.196;2023-03-31T04:32:38;9.70;99.90
1049;DHT22;513;51.444;7.196;2023-03-31T04:35:05;9.70;99.90
1049;DHT22;513;51.444;7.196;2023-03-31T04:37:31;9.70;99.90
1049;DHT22;513;51.444;7.196;2023-03-31T04:39:59;9.70;99.90
1049;DHT22;513;51.444;7.196;2023-03-31T04:42:32;9.70;99.90
1049;DHT22;513;51.444;7.196;2023-03-31T04:44:59;9.70;99.90
1049;DHT22;513;51.444;7.196;2023-03-31T04:47:26;9.70;99.90
1049;DHT22;513;51.444;7.196;2023-03-31T04:49:52;9.70;99.90
1049;DHT22;513;51.444;7.196;2023-03-31T04:52:19;9.70;99.90
1049;DHT22;513;51.444;7.196;2023-03-31T04:54:46;9.80;99.90
1049;DHT22;513;51.444;7.196;2023-03-31T04:57:12;9.80;99.90
1049;DHT22;513;51.444;7.196;2023-03-31T04:59:39;9.80;99.90
1049;DHT22;513;51.444;7.196;2023-03-31T05:02:07;9.70;99.90
1049;DHT22;513;51.444;7.196;2023-03-31T05:04:33;9.80;99.90
1049;DHT22;513;51.444;7.196;2023-03-31T05:07:01;9.70;99.90
1049;DHT22;513;51.444;7.196;2023-03-31T05:09:28;9.70;99.90
1049;DHT22;513;51.444;7.196;2023-03-31T05:11:55;9.60;99.90
1049;DHT22;513;51.444;7.196;2023-03-31T05:14:22;9.70;99.90
1049;DHT22;513;51.444;7.196;2023-03-31T05:16:48;9.70;99.90
1049;DHT22;513;51.444;7.196;2023-03-31T05:19:17;9.60;99.90
1049;DHT22;513;51.444;7.196;2023-03-31T05:21:43;9.60;99.90
1049;DHT22;513;51.444;7.196;2023-03-31T05:24:10;9.60;99.90
1049;DHT22;513;51.444;7.196;2023-03-31T05:26:37;9.60;99.90
1049;DHT22;513;51.444;7.196;2023-03-31T05:29:05;9.60;99.90
1049;DHT22;513;51.444;7.196;2023-03-31T05:31:31;9.60;99.90
1049;DHT22;513;51.444;7.196;2023-03-31T05:33:58;9.60;99.90
1049;DHT22;513;51.444;7.196;2023-03-31T05:36:26;9.60;99.90
1049;DHT22;513;51.444;7.196;2023-03-31T05:38:52;9.60;99.90
1049;DHT22;513;51.444;7.196;2023-03-31T05:41:19;9.60;99.90
1049;DHT22;513;51.444;7.196;2023-03-31T05:43:45;9.60;99.90
1049;DHT22;513;51.444;7.196;2023-03-31T05:46:12;9.60;99.90
1049;DHT22;513;51.444;7.196;2023-03-31T05:48:39;9.50;99.90
1049;DHT22;513;51.444;7.196;2023-03-31T05:51:05;9.60;99.90
1049;DHT22;513;51.444;7.196;2023-03-31T05:53:33;9.50;99.90
1049;DHT22;513;51.444;7.196;2023-03-31T05:56:00;9.60;99.90
1049;DHT22;513;51.444;7.196;2023-03-31T05:58:27;9.60;99.90
1049;DHT22;513;51.444;7.196;2023-03-31T06:01:00;9.60;99.90
1049;DHT22;513;51.444;7.196;2023-03-31T06:03:30;9.60;99.90
1049;DHT22;513;51.444;7.196;2023-03-31T06:05:56;9.60;99.90
1049;DHT22;513;51.444;7.196;2023-03-31T06:08:23;9.60;99.90
1049;DHT22;513;51.444;7.196;2023-03-31T06:10:51;9.60;99.90
1049;DHT22;513;51.444;7.196;2023-03-31T06:13:18;9.60;99.90
1049;DHT22;513;51.444;7.196;2023-03-31T06:15:51;9.60;99.90
1049;DHT22;513;51.444;7.196;2023-03-31T06:18:18;9.60;99.90
1049;DHT22;513;51.444;7.196;2023-03-31T06:20:44;9.60;99.90
1049;DHT22;513;51.444;7.196;2023-03-31T06:23:11;9.60;99.90
1049;DHT22;513;51.444;7.196;2023-03-31T06:25:38;9.60;99.90
1049;DHT22;513;51.444;7.196;2023-03-31T06:28:05;9.60;99.90
1049;DHT22;513;51.444;7.196;2023-03-31T06:30:32;9.60;99.90
1049;DHT22;513;51.444;7.196;2023-03-31T06:32:59;9.60;99.90
1049;DHT22;513;51.444;7.196;2023-03-31T06:35:25;9.60;99.90
1049;DHT22;513;51.444;7.196;2023-03-31T06:37:52;9.50;99.90
1049;DHT22;513;51.444;7.196;2023-03-31T06:40:19;9.50;99.90
1049;DHT22;513;51.444;7.196;2023-03-31T06:42:45;9.50;99.90
1049;DHT22;513;51.444;7.196;2023-03-31T06:45:13;9.40;99.90
1049;DHT22;513;51.444;7.196;2023-03-31T06:47:40;9.40;99.90
1049;DHT22;513;51.444;7.196;2023-03-31T06:50:07;9.40;99.90
1049;DHT22;513;51.444;7.196;2023-03-31T06:52:34;9.40;99.90
1049;DHT22;513;51.444;7.196;2023-03-31T06:55:01;9.40;99.90
1049;DHT22;513;51.444;7.196;2023-03-31T06:57:27;9.40;99.90
1049;DHT22;513;51.444;7.196;2023-03-31T06:59:54;9.40;99.90
1049;DHT22;513;51.444;7.196;2023-03-31T07:02:22;9.40;99.90
1049;DHT22;513;51.444;7.196;2023-03-31T07:04:48;9.30;99.90
1049;DHT22;513;51.444;7.196;2023-03-31T07:07:15;9.30;99.90
1049;DHT22;513;51.444;7.196;2023-03-31T07:09:41;9.30;99.90
1049;DHT22;513;51.444;7.196;2023-03-31T07:12:08;9.30;99.90
1049;DHT22;513;51.444;7.196;2023-03-31T07:14:35;9.30;99.90
1049;DHT22;513;51.444;7.196;2023-03-31T07:17:01;9.30;99.90
1049;DHT22;513;51.444;7.196;2023-03-31T07:19:29;9.30;99.90
1049;DHT22;513;51.444;7.196;2023-03-31T07:21:56;9.30;99.90
1049;DHT22;513;51.444;7.196;2023-03-31T07:24:22;9.30;99.90
1049;DHT22;513;51.444;7.196;2023-03-31T07:26:49;9.30;99.90
1049;DHT22;513;51.444;7.196;2023-03-31T07:29:16;9.20;99.90
1049;DHT22;513;51.444;7.196;2023-03-31T07:31:42;9.20;99.90
1049;DHT22;513;51.444;7.196;2023-03-31T07:34:12;9.20;99.90
1049;DHT22;513;51.444;7.196;2023-03-31T07:36:40;9.20;99.90
1049;DHT22;513;51.444;7.196;2023-03-31T07:39:06;9.30;99.90
1049;DHT22;513;51.444;7.196;2023-03-31T07:41:33;9.30;99.90
1049;DHT22;513;51.444;7.196;2023-03-31T07:44:00;9.30;99.90
1049;DHT22;513;51.444;7.196;2023-03-31T07:46:27;9.30;99.90
1049;DHT22;513;51.444;7.196;2023-03-31T07:48:54;9.30;99.90
1049;DHT22;513;51.444;7.196;2023-03-31T07:51:21;9.30;99.90
1049;DHT22;513;51.444;7.196;2023-03-31T07:53:49;9.30;99.90
1049;DHT22;513;51.444;7.196;2023-03-31T07:56:17;9.30;99.90
1049;DHT22;513;51.444;7.196;2023-03-31T07:58:43;9.30;99.90
1049;DHT22;513;51.444;7.196;2023-03-31T08:01:12;9.30;99.90
1049;DHT22;513;51.444;7.196;2023-03-31T08:03:41;9.30;99.90
1049;DHT22;513;51.444;7.196;2023-03-31T08:06:07;9.30;99.90
1049;DHT22;513;51.444;7.196;2023-03-31T08:08:34;9.30;99.90
1049;DHT22;513;51.444;7.196;2023-03-31T08:11:04;9.40;99.90
1049;DHT22;513;51.444;7.196;2023-03-31T08:13:30;9.40;99.90
1049;DHT22;513;51.444;7.196;2023-03-31T08:15:57;9.40;99.90
1049;DHT22;513;51.444;7.196;2023-03-31T08:18:23;9.50;99.90
1049;DHT22;513;51.444;7.196;2023-03-31T08:20:50;9.60;99.90
1049;DHT22;513;51.444;7.196;2023-03-31T08:23:17;9.70;99.90
1049;DHT22;513;51.444;7.196;2023-03-31T08:25:43;9.80;99.90
1049;DHT22;513;51.444;7.196;2023-03-31T08:28:11;9.80;99.90
1049;DHT22;513;51.444;7.196;2023-03-31T08:30:39;9.90;99.90
1049;DHT22;513;51.444;7.196;2023-03-31T08:33:05;9.90;99.90
1049;DHT22;513;51.444;7.196;2023-03-31T08:35:33;10.00;99.90
1049;DHT22;513;51.444;7.196;2023-03-31T08:37:59;10.00;99.90
1049;DHT22;513;51.444;7.196;2023-03-31T08:40:27;10.10;99.90
1049;DHT22;513;51.444;7.196;2023-03-31T08:42:54;10.10;99.90
1049;DHT22;513;51.444;7.196;2023-03-31T08:45:24;10.10;99.90
1049;DHT22;513;51.444;7.196;2023-03-31T08:47:54;10.10;99.90
1049;DHT22;513;51.444;7.196;2023-03-31T08:50:22;10.10;99.90
1049;DHT22;513;51.444;7.196;2023-03-31T08:52:51;10.10;99.90
1049;DHT22;513;51.444;7.196;2023-03-31T08:55:21;10.10;99.90
1049;DHT22;513;51.444;7.196;2023-03-31T08:57:53;10.10;99.90
1049;DHT22;513;51.444;7.196;2023-03-31T09:00:20;10.20;99.90
1049;DHT22;513;51.444;7.196;2023-03-31T09:02:49;10.20;99.90
1049;DHT22;513;51.444;7.196;2023-03-31T09:05:29;10.20;99.90
1049;DHT22;513;51.444;7.196;2023-03-31T09:08:01;10.20;99.90
1049;DHT22;513;51.444;7.196;2023-03-31T09:10:37;10.30;99.90
1049;DHT22;513;51.444;7.196;2023-03-31T09:13:09;10.20;99.90
1049;DHT22;513;51.444;7.196;2023-03-31T09:15:38;10.20;99.90
1049;DHT22;513;51.444;7.196;2023-03-31T09:18:10;10.20;99.90
1049;DHT22;513;51.444;7.196;2023-03-31T09:20:41;10.20;99.90
1049;DHT22;513;51.444;7.196;2023-03-31T09:23:12;10.20;99.90
1049;DHT22;513;51.444;7.196;2023-03-31T09:25:43;10.20;99.90
1049;DHT22;513;51.444;7.196;2023-03-31T09:28:12;10.30;99.90
1049;DHT22;513;51.444;7.196;2023-03-31T09:30:39;10.40;99.90
1049;DHT22;513;51.444;7.196;2023-03-31T09:33:10;10.60;99.90
1049;DHT22;513;51.444;7.196;2023-03-31T09:35:37;10.60;99.90
1049;DHT22;513;51.444;7.196;2023-03-31T09:38:04;10.60;99.90
1049;DHT22;513;51.444;7.196;2023-03-31T09:40:31;10.70;99.90
1049;DHT22;513;51.444;7.196;2023-03-31T09:42:59;10.80;99.90
1049;DHT22;513;51.444;7.196;2023-03-31T09:45:27;11.00;99.90
1049;DHT22;513;51.444;7.196;2023-03-31T09:47:55;11.00;99.90
1049;DHT22;513;51.444;7.196;2023-03-31T09:50:24;11.10;99.90
1049;DHT22;513;51.444;7.196;2023-03-31T09:52:52;11.10;99.90
1049;DHT22;513;51.444;7.196;2023-03-31T09:55:21;11.10;99.90
1049;DHT22;513;51.444;7.196;2023-03-31T09:57:48;11.10;99.90
1049;DHT22;513;51.444;7.196;2023-03-31T10:00:17;11.00;99.90
1049;DHT22;513;51.444;7.196;2023-03-31T10:02:46;10.90;99.90
1049;DHT22;513;51.444;7.196;2023-03-31T10:05:18;10.90;99.90
1049;DHT22;513;51.444;7.196;2023-03-31T10:07:48;10.90;99.90
1049;DHT22;513;51.444;7.196;2023-03-31T10:10:19;10.90;99.90
1049;DHT22;513;51.444;7.196;2023-03-31T10:12:50;10.90;99.90
1049;DHT22;513;51.444;7.196;2023-03-31T10:15:18;10.90;99.90
1049;DHT22;513;51.444;7.196;2023-03-31T10:17:46;11.00;99.90
1049;DHT22;513;51.444;7.196;2023-03-31T10:20:21;11.10;99.90
1049;DHT22;513;51.444;7.196;2023-03-31T10:22:54;11.20;99.90
1049;DHT22;513;51.444;7.196;2023-03-31T10:25:21;11.30;99.90
1049;DHT22;513;51.444;7.196;2023-03-31T10:27:50;11.40;99.90
1049;DHT22;513;51.444;7.196;2023-03-31T10:30:20;11.50;99.90
1049;DHT22;513;51.444;7.196;2023-03-31T10:32:47;11.70;99.90
1049;DHT22;513;51.444;7.196;2023-03-31T10:35:18;11.70;99.90
1049;DHT22;513;51.444;7.196;2023-03-31T10:37:47;11.60;99.90
1049;DHT22;513;51.444;7.196;2023-03-31T10:40:17;11.60;99.90
1049;DHT22;513;51.444;7.196;2023-03-31T10:42:45;11.60;99.90
1049;DHT22;513;51.444;7.196;2023-03-31T10:45:17;11.70;99.90
1049;DHT22;513;51.444;7.196;2023-03-31T10:47:49;11.80;99.90
1049;DHT22;513;51.444;7.196;2023-03-31T10:50:18;12.00;99.90
1049;DHT22;513;51.444;7.196;2023-03-31T10:52:45;12.40;99.90
1049;DHT22;513;51.444;7.196;2023-03-31T10:55:12;12.60;99.90
1049;DHT22;513;51.444;7.196;2023-03-31T10:57:42;12.60;99.90
1049;DHT22;513;51.444;7.196;2023-03-31T11:00:15;12.70;99.90
1049;DHT22;513;51.444;7.196;2023-03-31T11:02:51;12.90;99.90
1049;DHT22;513;51.444;7.196;2023-03-31T11:05:22;13.00;99.90
1049;DHT22;513;51.444;7.196;2023-03-31T11:07:58;13.10;99.90
1049;DHT22;513;51.444;7.196;2023-03-31T11:10:40;13.30;99.90
1049;DHT22;513;51.444;7.196;2023-03-31T11:13:10;13.40;99.90
1049;DHT22;513;51.444;7.196;2023-03-31T11:15:39;13.80;99.90
1049;DHT22;513;51.444;7.196;2023-03-31T11:18:16;14.10;99.30
1049;DHT22;513;51.444;7.196;2023-03-31T11:20:49;14.10;1.00
1049;DHT22;513;51.444;7.196;2023-03-31T11:23:17;14.10;11.80
1049;DHT22;513;51.444;7.196;2023-03-31T11:25:46;13.40;7.00
1049;DHT22;513;51.444;7.196;2023-03-31T11:31:04;12.40;99.90
1049;DHT22;513;51.444;7.196;2023-03-31T11:33:47;12.10;99.90
1049;DHT22;513;51.444;7.196;2023-03-31T11:36:20;11.80;99.90
1049;DHT22;513;51.444;7.196;2023-03-31T11:38:53;11.60;99.90
1049;DHT22;513;51.444;7.196;2023-03-31T11:41:26;11.50;99.90
1049;DHT22;513;51.444;7.196;2023-03-31T11:43:54;11.40;99.90
1049;DHT22;513;51.444;7.196;2023-03-31T11:46:24;11.30;99.90
1049;DHT22;513;51.444;7.196;2023-03-31T11:48:52;11.30;99.90
1049;DHT22;513;51.444;7.196;2023-03-31T11:51:23;11.20;99.90
1049;DHT22;513;51.444;7.196;2023-03-31T11:53:51;11.20;99.90
1049;DHT22;513;51.444;7.196;2023-03-31T11:56:18;11.40;99.90
1049;DHT22;513;51.444;7.196;2023-03-31T11:58:46;11.50;99.90
1049;DHT22;513;51.444;7.196;2023-03-31T12:01:15;11.60;99.90
1049;DHT22;513;51.444;7.196;2023-03-31T12:03:46;11.70;99.90
1049;DHT22;513;51.444;7.196;2023-03-31T12:06:15;11.90;99.90
1049;DHT22;513;51.444;7.196;2023-03-31T12:08:46;12.20;99.90
1049;DHT22;513;51.444;7.196;2023-03-31T12:11:15;12.20;99.90
1049;DHT22;513;51.444;7.196;2023-03-31T12:13:46;12.30;99.90
1049;DHT22;513;51.444;7.196;2023-03-31T12:16:17;12.30;99.90
1049;DHT22;513;51.444;7.196;2023-03-31T12:18:48;12.30;99.90
1049;DHT22;513;51.444;7.196;2023-03-31T12:21:20;12.30;99.90
1049;DHT22;513;51.444;7.196;2023-03-31T12:23:47;12.40;99.90
1049;DHT22;513;51.444;7.196;2023-03-31T12:26:19;12.60;99.90
1049;DHT22;513;51.444;7.196;2023-03-31T12:28:48;12.60;99.90
1049;DHT22;513;51.444;7.196;2023-03-31T12:31:18;12.60;99.90
1049;DHT22;513;51.444;7.196;2023-03-31T12:33:45;12.50;99.90
1049;DHT22;513;51.444;7.196;2023-03-31T12:36:20;12.50;99.90
1049;DHT22;513;51.444;7.196;2023-03-31T12:38:51;12.40;99.90
1049;DHT22;513;51.444;7.196;2023-03-31T12:41:22;12.40;99.90
1049;DHT22;513;51.444;7.196;2023-03-31T12:46:35;12.30;99.90
1049;DHT22;513;51.444;7.196;2023-03-31T12:49:22;12.30;99.90
1049;DHT22;513;51.444;7.196;2023-03-31T12:52:00;12.30;99.90
1049;DHT22;513;51.444;7.196;2023-03-31T12:54:43;12.10;99.90
1049;DHT22;513;51.444;7.196;2023-03-31T12:57:18;12.00;99.90
1049;DHT22;513;51.444;7.196;2023-03-31T12:59:45;11.80;99.90
1049;DHT22;513;51.444;7.196;2023-03-31T13:02:30;11.80;99.90
1049;DHT22;513;51.444;7.196;2023-03-31T13:04:56;11.90;99.90
1049;DHT22;513;51.444;7.196;2023-03-31T13:10:26;12.20;99.90
1049;DHT22;513;51.444;7.196;2023-03-31T13:12:57;12.30;99.90
1049;DHT22;513;51.444;7.196;2023-03-31T13:15:25;12.40;99.90
1049;DHT22;513;51.444;7.196;2023-03-31T13:17:54;12.60;99.90
1049;DHT22;513;51.444;7.196;2023-03-31T13:20:32;12.70;99.90
1049;DHT22;513;51.444;7.196;2023-03-31T13:23:02;12.90;99.90
1049;DHT22;513;51.444;7.196;2023-03-31T13:25:37;12.80;99.90
1049;DHT22;513;51.444;7.196;2023-03-31T13:28:09;13.00;99.90
1049;DHT22;513;51.444;7.196;2023-03-31T13:30:45;13.10;99.90
1049;DHT22;513;51.444;7.196;2023-03-31T13:33:12;13.00;99.90
1049;DHT22;513;51.444;7.196;2023-03-31T13:35:40;12.90;99.90
1049;DHT22;513;51.444;7.196;2023-03-31T13:38:12;12.90;99.90
1049;DHT22;513;51.444;7.196;2023-03-31T13:40:52;12.70;99.90
1049;DHT22;513;51.444;7.196;2023-03-31T13:46:19;12.50;99.90
1049;DHT22;513;51.444;7.196;2023-03-31T13:48:50;12.40;99.90
1049;DHT22;513;51.444;7.196;2023-03-31T13:51:24;12.50;99.90
1049;DHT22;513;51.444;7.196;2023-03-31T13:56:39;12.60;99.90
1049;DHT22;513;51.444;7.196;2023-03-31T13:59:14;12.70;99.90
1049;DHT22;513;51.444;7.196;2023-03-31T14:01:52;12.70;99.90
1049;DHT22;513;51.444;7.196;2023-03-31T14:04:29;12.80;99.90
1049;DHT22;513;51.444;7.196;2023-03-31T14:07:05;12.80;99.90
1049;DHT22;513;51.444;7.196;2023-03-31T14:09:33;12.80;94.10
1049;DHT22;513;51.444;7.196;2023-03-31T14:12:17;12.70;62.70
1049;DHT22;513;51.444;7.196;2023-03-31T14:14:44;12.80;60.80
1049;DHT22;513;51.444;7.196;2023-03-31T14:17:11;12.80;35.90
1049;DHT22;513;51.444;7.196;2023-03-31T14:19:44;12.70;6.50
1049;DHT22;513;51.444;7.196;2023-03-31T14:22:18;12.70;34.50
1049;DHT22;513;51.444;7.196;2023-03-31T14:24:47;12.70;1.00
1049;DHT22;513;51.444;7.196;2023-03-31T14:27:19;12.80;2.40
1049;DHT22;513;51.444;7.196;2023-03-31T14:29:51;12.80;1.00
1049;DHT22;513;51.444;7.196;2023-03-31T14:32:23;12.90;1.00
1049;DHT22;513;51.444;7.196;2023-03-31T14:35:00;13.00;1.00
1049;DHT22;513;51.444;7.196;2023-03-31T14:37:29;13.10;1.00
1049;DHT22;513;51.444;7.196;2023-03-31T14:39:56;13.20;1.00
1049;DHT22;513;51.444;7.196;2023-03-31T14:42:25;13.20;1.00
1049;DHT22;513;51.444;7.196;2023-03-31T14:44:54;13.20;1.00
1049;DHT22;513;51.444;7.196;2023-03-31T14:47:22;13.20;1.00
1049;DHT22;513;51.444;7.196;2023-03-31T14:49:57;13.30;1.00
1049;DHT22;513;51.444;7.196;2023-03-31T14:52:24;13.30;1.00
1049;DHT22;513;51.444;7.196;2023-03-31T14:54:54;13.30;1.00
1049;DHT22;513;51.444;7.196;2023-03-31T14:57:22;13.40;1.00
1049;DHT22;513;51.444;7.196;2023-03-31T14:59:52;13.30;1.00
1049;DHT22;513;51.444;7.196;2023-03-31T15:02:21;13.20;1.00
1049;DHT22;513;51.444;7.196;2023-03-31T15:04:49;13.10;1.00
1049;DHT22;513;51.444;7.196;2023-03-31T15:07:16;13.00;1.00
1049;DHT22;513;51.444;7.196;2023-03-31T15:09:43;12.90;1.00
1049;DHT22;513;51.444;7.196;2023-03-31T15:12:14;12.80;1.00
1049;DHT22;513;51.444;7.196;2023-03-31T15:14:41;12.80;1.00
1049;DHT22;513;51.444;7.196;2023-03-31T15:17:17;12.80;1.00
1049;DHT22;513;51.444;7.196;2023-03-31T15:19:43;12.80;1.00
1049;DHT22;513;51.444;7.196;2023-03-31T15:22:11;12.70;1.00
1049;DHT22;513;51.444;7.196;2023-03-31T15:24:40;12.70;1.00
1049;DHT22;513;51.444;7.196;2023-03-31T15:27:08;12.70;1.00
1049;DHT22;513;51.444;7.196;2023-03-31T15:29:37;12.70;1.00
1049;DHT22;513;51.444;7.196;2023-03-31T15:32:07;12.60;1.00
1049;DHT22;513;51.444;7.196;2023-03-31T15:34:38;12.60;1.00
1049;DHT22;513;51.444;7.196;2023-03-31T15:37:07;12.60;1.00
1049;DHT22;513;51.444;7.196;2023-03-31T15:39:34;12.50;31.80
1049;DHT22;513;51.444;7.196;2023-03-31T15:42:02;12.20;99.90
1049;DHT22;513;51.444;7.196;2023-03-31T15:44:34;11.80;99.90
1049;DHT22;513;51.444;7.196;2023-03-31T15:47:01;11.60;99.90
1049;DHT22;513;51.444;7.196;2023-03-31T15:49:31;11.30;99.90
1049;DHT22;513;51.444;7.196;2023-03-31T15:51:59;11.10;99.90
1049;DHT22;513;51.444;7.196;2023-03-31T15:54:28;11.00;99.90
1049;DHT22;513;51.444;7.196;2023-03-31T15:56:55;10.80;99.90
1049;DHT22;513;51.444;7.196;2023-03-31T15:59:22;10.80;99.90
1049;DHT22;513;51.444;7.196;2023-03-31T16:01:49;10.70;99.90
1049;DHT22;513;51.444;7.196;2023-03-31T16:04:16;10.70;99.90
1049;DHT22;513;51.444;7.196;2023-03-31T16:06:43;10.70;99.90
1049;DHT22;513;51.444;7.196;2023-03-31T16:09:13;10.70;99.90
1049;DHT22;513;51.444;7.196;2023-03-31T16:11:41;10.70;99.90
1049;DHT22;513;51.444;7.196;2023-03-31T16:14:10;10.70;99.90
1049;DHT22;513;51.444;7.196;2023-03-31T16:16:38;10.70;99.90
1049;DHT22;513;51.444;7.196;2023-03-31T16:19:06;10.70;99.90
1049;DHT22;513;51.444;7.196;2023-03-31T16:21:34;10.80;99.90
1049;DHT22;513;51.444;7.196;2023-03-31T16:24:02;10.90;99.90
1049;DHT22;513;51.444;7.196;2023-03-31T16:26:30;10.90;99.90
1049;DHT22;513;51.444;7.196;2023-03-31T16:28:57;10.90;99.90
1049;DHT22;513;51.444;7.196;2023-03-31T16:31:29;10.90;99.90
1049;DHT22;513;51.444;7.196;2023-03-31T16:33:58;11.00;99.90
1049;DHT22;513;51.444;7.196;2023-03-31T16:36:25;10.90;99.90
1049;DHT22;513;51.444;7.196;2023-03-31T16:38:52;11.00;99.90
1049;DHT22;513;51.444;7.196;2023-03-31T16:41:19;11.00;99.90
1049;DHT22;513;51.444;7.196;2023-03-31T16:43:48;11.00;99.90
1049;DHT22;513;51.444;7.196;2023-03-31T16:46:16;11.00;99.90
1049;DHT22;513;51.444;7.196;2023-03-31T16:48:43;11.00;99.90
1049;DHT22;513;51.444;7.196;2023-03-31T16:51:10;10.90;99.90
1049;DHT22;513;51.444;7.196;2023-03-31T16:53:36;10.90;99.90
1049;DHT22;513;51.444;7.196;2023-03-31T16:56:03;10.90;99.90
1049;DHT22;513;51.444;7.196;2023-03-31T16:58:31;10.80;99.90
1049;DHT22;513;51.444;7.196;2023-03-31T17:00:59;10.80;99.90
1049;DHT22;513;51.444;7.196;2023-03-31T17:03:26;10.70;99.90